createdAt,value
2023-05-05T10:23:03.682Z,500.00
2023-05-05T10:24:02.154Z,500.00
2023-05-05T10:25:02.105Z,500.00
2023-05-05T10:26:02.153Z,500.00
2023-05-05T10:27:02.145Z,500.00
2023-05-05T10:28:03.926Z,400.00
2023-05-05T10:29:02.101Z,400.00
2023-05-05T10:30:02.086Z,400.00
2023-05-05T10:31:02.236Z,400.00
2023-05-05T10:32:10.261Z,400.00
2023-05-05T10:33:22.854Z,400.00
2023-05-05T10:34:03.367Z,400.00
2023-05-05T10:35:02.114Z,400.00
2023-05-05T10:36:02.054Z,400.00
2023-05-05T10:37:02.063Z,400.00
2023-05-05T10:38:02.073Z,400.00
2023-05-05T10:39:02.089Z,400.00
2023-05-05T10:40:02.022Z,400.00
2023-05-05T10:41:02.193Z,400.00
2023-05-05T10:42:02.071Z,400.00
2023-05-05T10:43:02.048Z,400.00
2023-05-05T10:44:04.240Z,400.00
2023-05-05T10:45:02.159Z,400.00
2023-05-05T10:46:02.204Z,400.00
2023-05-05T10:47:02.222Z,400.00
2023-05-05T10:48:02.270Z,400.00
2023-05-05T10:49:02.223Z,400.00
2023-05-05T10:50:02.209Z,400.00
2023-05-05T10:51:02.187Z,400.00
2023-05-05T10:52:02.251Z,400.00
2023-05-05T10:53:02.273Z,400.00
2023-05-05T10:54:02.339Z,400.00
2023-05-05T10:55:02.345Z,400.00
2023-05-05T10:56:02.265Z,400.00
2023-05-05T10:57:02.282Z,400.00
2023-05-05T10:58:02.255Z,400.00
2023-05-05T10:59:02.241Z,400.00
2023-05-05T11:00:02.265Z,400.00
2023-05-05T11:01:02.261Z,400.00
2023-05-05T11:02:02.260Z,400.00
2023-05-05T11:03:02.287Z,400.00
2023-05-05T11:04:02.329Z,400.00
2023-05-05T11:05:02.292Z,400.00
2023-05-05T11:06:02.330Z,400.00
2023-05-05T11:07:02.437Z,400.00
2023-05-05T11:08:02.450Z,400.00
2023-05-05T11:09:02.512Z,400.00
2023-05-05T11:10:02.583Z,400.00
2023-05-05T11:11:02.667Z,400.00
2023-05-05T11:12:02.711Z,400.00
2023-05-05T11:13:02.937Z,400.00
2023-05-05T11:14:02.755Z,400.00
2023-05-05T11:15:02.857Z,400.00
2023-05-05T11:16:02.867Z,400.00
2023-05-05T11:17:02.942Z,400.00
2023-05-05T11:18:06.786Z,400.00
2023-05-05T11:19:02.930Z,400.00
2023-05-05T11:20:02.942Z,400.00
2023-05-05T11:21:03.372Z,400.00
2023-05-05T11:22:02.969Z,400.00
2023-05-05T11:23:02.951Z,400.00
2023-05-05T11:24:02.939Z,400.00
2023-05-05T11:25:02.921Z,400.00
2023-05-05T11:26:02.946Z,400.00
2023-05-05T11:27:02.990Z,400.00
2023-05-05T11:28:02.898Z,400.00
2023-05-05T11:29:02.911Z,400.00
2023-05-05T11:30:02.920Z,400.00
2023-05-05T11:31:02.935Z,400.00
2023-05-05T11:32:02.872Z,400.00
2023-05-05T11:33:02.909Z,400.00
2023-05-05T11:34:03.500Z,400.00
2023-05-05T11:35:02.906Z,400.00
2023-05-05T11:36:05.823Z,400.00
2023-05-05T11:37:02.965Z,400.00
2023-05-05T11:38:02.895Z,400.00
2023-05-05T11:39:02.934Z,400.00
2023-05-05T11:40:02.940Z,400.00
2023-05-05T11:41:02.870Z,400.00
2023-05-05T11:42:08.092Z,400.00
2023-05-05T11:43:03.869Z,400.00
2023-05-05T11:44:02.917Z,400.00
2023-05-05T11:45:02.905Z,400.00
2023-05-05T11:46:02.941Z,400.00
2023-05-05T11:47:02.893Z,400.00
2023-05-05T11:48:02.933Z,400.00
2023-05-05T11:49:02.876Z,400.00
2023-05-05T11:50:02.892Z,400.00
2023-05-05T11:51:02.840Z,400.00
2023-05-05T11:52:02.852Z,400.00
2023-05-05T11:53:02.868Z,400.00
2023-05-05T11:54:02.869Z,400.00
2023-05-05T11:55:02.832Z,465.00
2023-05-05T11:56:02.834Z,496.00
2023-05-05T11:57:02.836Z,507.00
2023-05-05T11:58:02.855Z,500.00
2023-05-05T11:59:02.972Z,505.00
2023-05-05T12:00:02.908Z,531.00
2023-05-05T12:01:02.928Z,562.00
2023-05-05T12:02:02.962Z,613.00
2023-05-05T12:03:03.189Z,598.00
2023-05-05T12:04:03.221Z,606.00
2023-05-05T12:05:02.989Z,611.00
2023-05-05T12:06:02.999Z,627.00
2023-05-05T12:07:03.002Z,675.00
2023-05-05T12:08:03.036Z,565.00
2023-05-05T12:09:03.030Z,493.00
2023-05-05T12:10:03.048Z,458.00
2023-05-05T12:11:03.078Z,500.00
2023-05-05T12:12:03.114Z,500.00
2023-05-05T12:13:03.149Z,500.00
2023-05-05T12:14:03.164Z,542.00
2023-05-05T12:15:03.227Z,496.00
2023-05-05T12:16:03.191Z,497.00
2023-05-05T12:17:03.177Z,503.00
2023-05-05T12:18:03.532Z,503.00
2023-05-05T12:19:03.243Z,509.00
2023-05-05T12:20:03.268Z,503.00
2023-05-05T12:21:03.253Z,491.00
2023-05-05T12:22:03.261Z,505.00
2023-05-05T12:23:03.318Z,496.00
2023-05-05T12:24:03.285Z,514.00
2023-05-05T12:25:03.334Z,530.00
2023-05-05T12:26:03.337Z,504.00
2023-05-05T12:27:03.345Z,505.00
2023-05-05T12:28:03.402Z,492.00
2023-05-05T12:29:03.418Z,505.00
2023-05-05T12:30:03.462Z,518.00
2023-05-05T12:31:03.572Z,529.00
2023-05-05T12:32:03.506Z,505.00
2023-05-05T12:33:03.516Z,514.00
2023-05-05T12:34:03.499Z,485.00
2023-05-05T12:35:03.562Z,533.00
2023-05-05T12:36:03.575Z,570.00
2023-05-05T12:37:03.593Z,520.00
2023-05-05T12:38:03.631Z,502.00
2023-05-05T12:39:03.632Z,508.00
2023-05-05T12:40:03.639Z,499.00
2023-05-05T12:41:03.658Z,553.00
2023-05-05T12:42:03.703Z,511.00
2023-05-05T12:43:03.700Z,510.00
2023-05-05T12:44:03.729Z,516.00
2023-05-05T12:45:03.791Z,506.00
2023-05-05T12:46:03.842Z,572.00
2023-05-05T12:47:03.852Z,535.00
2023-05-05T12:48:03.938Z,574.00
2023-05-05T12:49:03.864Z,552.00
2023-05-05T12:50:03.875Z,584.00
2023-05-05T12:51:03.886Z,539.00
2023-05-05T12:52:03.930Z,553.00
2023-05-05T12:53:03.942Z,552.00
2023-05-05T12:54:03.965Z,568.00
2023-05-05T12:55:03.948Z,515.00
2023-05-05T12:56:03.959Z,500.00
2023-05-05T12:57:03.977Z,500.00
2023-05-05T12:58:03.965Z,564.00
2023-05-05T12:59:03.983Z,579.00
2023-05-05T13:00:03.987Z,580.00
2023-05-05T13:01:04.045Z,552.00
2023-05-05T13:02:04.078Z,500.00
2023-05-05T13:03:04.132Z,526.00
2023-05-05T13:04:04.026Z,555.00
2023-05-05T13:05:04.034Z,519.00
2023-05-05T13:06:04.064Z,501.00
2023-05-05T13:07:04.081Z,500.00
2023-05-05T13:08:04.073Z,503.00
2023-05-05T13:09:04.104Z,493.00
2023-05-05T13:10:04.159Z,491.00
2023-05-05T13:11:04.103Z,500.00
2023-05-05T13:12:04.112Z,501.00
2023-05-05T13:13:04.165Z,491.00
2023-05-05T13:14:04.195Z,517.00
2023-05-05T13:15:04.233Z,517.00
2023-05-05T13:16:04.332Z,491.00
2023-05-05T13:17:04.315Z,506.00
2023-05-05T13:18:04.360Z,523.00
2023-05-05T13:19:04.529Z,503.00
2023-05-05T13:20:04.372Z,503.00
2023-05-05T13:21:04.451Z,558.00
2023-05-05T13:22:04.487Z,525.00
2023-05-05T13:23:04.539Z,556.00
2023-05-05T13:24:21.491Z,523.00
2023-05-05T13:25:05.536Z,491.00
2023-05-05T13:26:04.617Z,486.00
2023-05-05T13:27:04.568Z,470.00
2023-05-05T13:28:04.515Z,443.00
2023-05-05T13:29:04.536Z,491.00
2023-05-05T13:30:04.516Z,507.00
2023-05-05T13:31:04.582Z,511.00
2023-05-05T13:32:04.617Z,501.00
2023-05-05T13:33:04.996Z,511.00
2023-05-05T13:34:04.674Z,545.00
2023-05-05T13:35:04.723Z,564.00
2023-05-05T13:36:04.788Z,616.00
2023-05-05T13:37:04.771Z,654.00
2023-05-05T13:38:04.804Z,662.00
2023-05-05T13:39:04.881Z,610.00
2023-05-05T13:40:04.948Z,608.00
2023-05-05T13:41:04.999Z,680.00
2023-05-05T13:42:05.130Z,660.00
2023-05-05T13:43:05.098Z,785.00
2023-05-05T13:44:05.142Z,646.00
2023-05-05T13:45:05.223Z,662.00
2023-05-05T13:46:18.740Z,849.00
2023-05-05T13:47:06.284Z,851.00
2023-05-05T13:48:05.261Z,833.00
2023-05-05T13:49:05.247Z,855.00
2023-05-05T13:50:05.220Z,1009.00
2023-05-05T13:51:05.366Z,1068.00
2023-05-05T13:52:05.196Z,1238.00
2023-05-05T13:53:05.219Z,1249.00
2023-05-05T13:54:05.182Z,1208.00
2023-05-05T13:55:05.172Z,1238.00
2023-05-05T13:56:05.195Z,1214.00
2023-05-05T13:57:05.232Z,1272.00
2023-05-05T13:58:05.299Z,1290.00
2023-05-05T13:59:05.364Z,1395.00
2023-05-05T14:00:05.455Z,1342.00
2023-05-05T14:01:05.484Z,1369.00
2023-05-05T14:02:05.522Z,1354.00
2023-05-05T14:03:05.634Z,1411.00
2023-05-05T14:04:06.038Z,1391.00
2023-05-05T14:05:05.795Z,1341.00
2023-05-05T14:06:05.764Z,1321.00
2023-05-05T14:07:05.817Z,1329.00
2023-05-05T14:08:05.864Z,1483.00
2023-05-05T14:09:06.425Z,1575.00
2023-05-05T14:10:05.991Z,1444.00
2023-05-05T14:11:06.066Z,1480.00
2023-05-05T14:12:06.107Z,1525.00
2023-05-05T14:13:06.261Z,1599.00
2023-05-05T14:14:06.226Z,1488.00
2023-05-05T14:15:06.330Z,1466.00
2023-05-05T14:16:06.338Z,1503.00
2023-05-05T14:17:06.420Z,1467.00
2023-05-05T14:18:06.430Z,1440.00
2023-05-05T14:19:06.504Z,1470.00
2023-05-05T14:20:06.525Z,1469.00
2023-05-05T14:21:06.574Z,1489.00
2023-05-05T14:22:06.646Z,1463.00
2023-05-05T14:23:06.757Z,1438.00
2023-05-05T14:24:06.801Z,1499.00
2023-05-05T14:25:07.080Z,1452.00
2023-05-05T14:26:06.953Z,1438.00
2023-05-05T14:27:06.970Z,1511.00
2023-05-05T14:28:06.984Z,1529.00
2023-05-05T14:29:07.097Z,1645.00
2023-05-05T14:30:07.138Z,1628.00
2023-05-05T14:31:07.181Z,1678.00
2023-05-05T14:32:07.262Z,1718.00
2023-05-05T14:33:07.419Z,1908.00
2023-05-05T14:34:07.323Z,2014.00
2023-05-05T14:35:07.515Z,2029.00
2023-05-05T14:36:07.509Z,2091.00
2023-05-05T14:37:07.547Z,2181.00
2023-05-05T14:38:07.613Z,2247.00
2023-05-05T14:39:07.664Z,2292.00
2023-05-05T14:40:07.720Z,2311.00
2023-05-05T14:41:07.690Z,2339.00
2023-05-05T14:42:07.769Z,2384.00
2023-05-05T14:43:07.797Z,2403.00
2023-05-05T14:44:07.863Z,2447.00
2023-05-05T14:45:08.139Z,2465.00
2023-05-05T14:46:07.993Z,2508.00
2023-05-05T14:47:08.009Z,2507.00
2023-05-05T14:48:08.046Z,2577.00
2023-05-05T14:49:08.084Z,2585.00
2023-05-05T14:50:08.168Z,2613.00
2023-05-05T14:51:08.218Z,2650.00
2023-05-05T14:52:08.270Z,2684.00
2023-05-05T14:53:08.329Z,2703.00
2023-05-05T14:54:20.509Z,2717.00
2023-05-05T14:55:09.682Z,2719.00
2023-05-05T14:56:08.364Z,2727.00
2023-05-05T14:57:08.354Z,2746.00
2023-05-05T14:58:08.356Z,2764.00
2023-05-05T14:59:08.338Z,2841.00
2023-05-05T15:00:08.366Z,2866.00
2023-05-05T15:01:08.377Z,2870.00
2023-05-05T15:02:08.310Z,2878.00
2023-05-05T15:03:08.413Z,2899.00
2023-05-05T15:04:08.405Z,2912.00
2023-05-05T15:05:08.750Z,2946.00
2023-05-05T15:06:08.519Z,2949.00
2023-05-05T15:07:08.575Z,2972.00
2023-05-05T15:08:08.672Z,2961.00
2023-05-05T15:09:08.740Z,2971.00
2023-05-05T15:10:08.881Z,2993.00
2023-05-05T15:11:08.864Z,2987.00
2023-05-05T15:12:08.851Z,2992.00
2023-05-05T15:13:08.986Z,3002.00
2023-05-05T15:14:08.985Z,3019.00
2023-05-05T15:15:09.215Z,3028.00
2023-05-05T15:16:09.175Z,3052.00
2023-05-05T15:17:09.136Z,3049.00
2023-05-05T15:18:09.150Z,3054.00
2023-05-05T15:19:09.144Z,3063.00
2023-05-05T15:20:09.186Z,3084.00
2023-05-05T15:21:09.170Z,3084.00
2023-05-05T15:22:09.173Z,3080.00
2023-05-05T15:23:09.198Z,3102.00
2023-05-05T15:24:09.160Z,3104.00
2023-05-05T15:25:09.351Z,3109.00
2023-05-05T15:26:09.160Z,3102.00
2023-05-05T15:27:09.122Z,3099.00
2023-05-05T15:28:09.201Z,3115.00
2023-05-05T15:29:09.189Z,3133.00
2023-05-05T15:30:09.132Z,3122.00
2023-05-05T15:31:09.161Z,3163.00
2023-05-05T15:32:09.158Z,3175.00
2023-05-05T15:33:09.155Z,3170.00
2023-05-05T15:34:09.157Z,3163.00
2023-05-05T15:35:09.361Z,3174.00
2023-05-05T15:36:09.201Z,3204.00
2023-05-05T15:37:09.193Z,3166.00
2023-05-05T15:38:09.951Z,3167.00
2023-05-05T15:39:09.357Z,3156.00
2023-05-05T15:40:09.267Z,3203.00
2023-05-05T15:41:09.213Z,3163.00
2023-05-05T15:42:09.226Z,3215.00
2023-05-05T15:43:09.346Z,3169.00
2023-05-05T15:44:09.241Z,3225.00
2023-05-05T15:45:09.416Z,3242.00
2023-05-05T15:46:09.288Z,3191.00
2023-05-05T15:47:09.412Z,3237.00
2023-05-05T15:48:09.311Z,3216.00
2023-05-05T15:49:09.398Z,3185.00
2023-05-05T15:50:09.378Z,3181.00
2023-05-05T15:51:09.389Z,3198.00
2023-05-05T15:52:09.405Z,3227.00
2023-05-05T15:53:09.427Z,3227.00
2023-05-05T15:54:09.441Z,3242.00
2023-05-05T15:55:09.621Z,3248.00
2023-05-05T15:56:09.534Z,3210.00
2023-05-05T15:57:09.529Z,3156.00
2023-05-05T15:58:09.606Z,3205.00
2023-05-05T15:59:09.534Z,3224.00
2023-05-05T16:00:09.588Z,3209.00
2023-05-05T16:01:09.722Z,3256.00
2023-05-05T16:02:09.678Z,3263.00
2023-05-05T16:03:09.748Z,3274.00
2023-05-05T16:04:09.708Z,3261.00
2023-05-05T16:05:10.023Z,3278.00
2023-05-05T16:06:09.787Z,3270.00
2023-05-05T16:07:09.882Z,3289.00
2023-05-05T16:08:09.916Z,3291.00
2023-05-05T16:09:09.914Z,3293.00
2023-05-05T16:10:09.967Z,3237.00
2023-05-05T16:11:10.004Z,3237.00
2023-05-05T16:12:10.032Z,3225.00
2023-05-05T16:13:10.153Z,3256.00
2023-05-05T16:14:10.174Z,3196.00
2023-05-05T16:15:10.678Z,3251.00
2023-05-05T16:16:10.209Z,3269.00
2023-05-05T16:17:10.286Z,3286.00
2023-05-05T16:18:10.327Z,3222.00
2023-05-05T16:19:10.333Z,3281.00
2023-05-05T16:20:10.473Z,3209.00
2023-05-05T16:21:10.627Z,3259.00
2023-05-05T16:22:10.501Z,3262.00
2023-05-05T16:23:10.588Z,3295.00
2023-05-05T16:24:10.558Z,3315.00
2023-05-05T16:25:10.850Z,3282.00
2023-05-05T16:26:10.708Z,3254.00
2023-05-05T16:27:10.804Z,3215.00
2023-05-05T16:28:10.866Z,3282.00
2023-05-05T16:29:10.924Z,3237.00
2023-05-05T16:30:10.993Z,3149.00
2023-05-05T16:31:11.216Z,3193.00
2023-05-05T16:32:11.103Z,3232.00
2023-05-05T16:33:11.200Z,3195.00
2023-05-05T16:34:11.222Z,3177.00
2023-05-05T16:35:11.249Z,3196.00
2023-05-05T16:36:11.261Z,3247.00
2023-05-05T16:37:11.327Z,3272.00
2023-05-05T16:38:11.299Z,3261.00
2023-05-05T16:39:11.351Z,3260.00
2023-05-05T16:40:11.354Z,3254.00
2023-05-05T16:41:11.426Z,3267.00
2023-05-05T16:42:11.417Z,3291.00
2023-05-05T16:43:11.422Z,3252.00
2023-05-05T16:44:11.597Z,3276.00
2023-05-05T16:45:11.570Z,3257.00
2023-05-05T16:46:11.441Z,3206.00
2023-05-05T16:47:11.508Z,3248.00
2023-05-05T16:48:11.445Z,3219.00
2023-05-05T16:49:11.453Z,3259.00
2023-05-05T16:50:11.478Z,3213.00
2023-05-05T16:51:11.401Z,3237.00
2023-05-05T16:52:11.420Z,3250.00
2023-05-05T16:53:11.450Z,3260.00
2023-05-05T16:54:11.500Z,3167.00
2023-05-05T16:55:11.655Z,3216.00
2023-05-05T16:56:11.461Z,3273.00
2023-05-05T16:57:11.443Z,3258.00
2023-05-05T16:58:11.449Z,3189.00
2023-05-05T16:59:11.486Z,3223.00
2023-05-05T17:00:11.494Z,3228.00
2023-05-05T17:01:11.574Z,3228.00
2023-05-05T17:02:11.508Z,3194.00
2023-05-05T17:03:11.572Z,3186.00
2023-05-05T17:04:11.534Z,3147.00
2023-05-05T17:05:11.759Z,3179.00
2023-05-05T17:06:11.561Z,3128.00
2023-05-05T17:07:11.570Z,3131.00
2023-05-05T17:08:11.577Z,3137.00
2023-05-05T17:09:11.583Z,3164.00
2023-05-05T17:10:11.593Z,3175.00
2023-05-05T17:11:11.916Z,3161.00
2023-05-05T17:12:11.701Z,3188.00
2023-05-05T17:13:11.783Z,3123.00
2023-05-05T17:14:11.750Z,3093.00
2023-05-05T17:15:11.817Z,3111.00
2023-05-05T17:16:11.776Z,3130.00
2023-05-05T17:17:11.825Z,3142.00
2023-05-05T17:18:11.785Z,3082.00
2023-05-05T17:19:11.914Z,3122.00
2023-05-05T17:20:11.866Z,3116.00
2023-05-05T17:21:11.878Z,3112.00
2023-05-05T17:22:11.892Z,3108.00
2023-05-05T17:23:11.891Z,3060.00
2023-05-05T17:24:11.949Z,3123.00
2023-05-05T17:25:12.086Z,3126.00
2023-05-05T17:26:12.000Z,3100.00
2023-05-05T17:27:12.044Z,3137.00
2023-05-05T17:28:12.059Z,3125.00
2023-05-05T17:29:13.029Z,3119.00
2023-05-05T17:30:12.085Z,3106.00
2023-05-05T17:31:12.117Z,3129.00
2023-05-05T17:32:12.186Z,3119.00
2023-05-05T17:33:12.167Z,3113.00
2023-05-05T17:34:12.195Z,3117.00
2023-05-05T17:35:12.246Z,3061.00
2023-05-05T17:36:12.211Z,3109.00
2023-05-05T17:37:12.240Z,3130.00
2023-05-05T17:38:12.261Z,3156.00
2023-05-05T17:39:12.291Z,3126.00
2023-05-05T17:40:12.348Z,3091.00
2023-05-05T17:41:12.359Z,3142.00
2023-05-05T17:42:12.433Z,3086.00
2023-05-05T17:43:12.429Z,3078.00
2023-05-05T17:44:12.444Z,3049.00
2023-05-05T17:45:12.742Z,3064.00
2023-05-05T17:46:12.506Z,3067.00
2023-05-05T17:47:12.531Z,3068.00
2023-05-05T17:48:12.563Z,3104.00
2023-05-05T17:49:12.608Z,3093.00
2023-05-05T17:50:12.610Z,3092.00
2023-05-05T17:51:12.708Z,3054.00
2023-05-05T17:52:12.684Z,3066.00
2023-05-05T17:53:12.749Z,3038.00
2023-05-05T17:54:12.744Z,3067.00
2023-05-05T17:55:12.911Z,3098.00
2023-05-05T17:56:12.822Z,3099.00
2023-05-05T17:57:12.895Z,3133.00
2023-05-05T17:58:12.937Z,3125.00
2023-05-05T17:59:12.945Z,3070.00
2023-05-05T18:00:12.989Z,3095.00
2023-05-05T18:01:13.022Z,3117.00
2023-05-05T18:02:13.102Z,3212.00
2023-05-05T18:03:13.163Z,3195.00
2023-05-05T18:04:13.112Z,3186.00
2023-05-05T18:05:13.217Z,3187.00
2023-05-05T18:06:13.237Z,3197.00
2023-05-05T18:07:13.408Z,3191.00
2023-05-05T18:08:13.317Z,3207.00
2023-05-05T18:09:13.409Z,3173.00
2023-05-05T18:10:13.432Z,3144.00
2023-05-05T18:11:13.489Z,3189.00
2023-05-05T18:12:13.508Z,3196.00
2023-05-05T18:13:13.811Z,3175.00
2023-05-05T18:14:13.658Z,3160.00
2023-05-05T18:15:13.674Z,3191.00
2023-05-05T18:16:13.782Z,3184.00
2023-05-05T18:17:13.753Z,3168.00
2023-05-05T18:18:13.889Z,3190.00
2023-05-05T18:19:13.874Z,3192.00
2023-05-05T18:20:13.964Z,3166.00
2023-05-05T18:21:14.044Z,3135.00
2023-05-05T18:22:14.039Z,3151.00
2023-05-05T18:23:14.162Z,3172.00
2023-05-05T18:25:14.165Z,3153.00
2023-05-05T18:26:14.149Z,3130.00
2023-05-05T18:27:14.126Z,3093.00
2023-05-05T18:28:14.142Z,3153.00
2023-05-05T18:29:14.177Z,3195.00
2023-05-05T18:30:14.118Z,3215.00
2023-05-05T18:31:14.292Z,3181.00
2023-05-05T18:32:14.114Z,3170.00
2023-05-05T18:33:14.092Z,3169.00
2023-05-05T18:34:14.112Z,3145.00
2023-05-05T18:35:14.115Z,3139.00
2023-05-05T18:36:14.091Z,3136.00
2023-05-05T18:37:14.093Z,3113.00
2023-05-05T18:38:14.090Z,3123.00
2023-05-05T18:39:14.088Z,3172.00
2023-05-05T18:40:14.058Z,3112.00
2023-05-05T18:41:14.076Z,3089.00
2023-05-05T18:42:14.068Z,3091.00
2023-05-05T18:43:14.097Z,3034.00
2023-05-05T18:44:14.200Z,3042.00
2023-05-05T18:45:14.282Z,3053.00
2023-05-05T18:46:14.352Z,3036.00
2023-05-05T18:47:14.405Z,3025.00
2023-05-05T18:48:14.462Z,3041.00
2023-05-05T18:49:14.525Z,3022.00
2023-05-05T18:50:14.550Z,3019.00
2023-05-05T18:51:14.595Z,3006.00
2023-05-05T18:52:14.652Z,3014.00
2023-05-05T18:53:14.658Z,3015.00
2023-05-05T18:54:14.697Z,2997.00
2023-05-05T18:55:14.804Z,2994.00
2023-05-05T18:56:14.740Z,3005.00
2023-05-05T18:57:14.802Z,2987.00
2023-05-05T18:58:14.800Z,2956.00
2023-05-05T18:59:14.816Z,2988.00
2023-05-05T19:00:14.840Z,2993.00
2023-05-05T19:01:14.864Z,2994.00
2023-05-05T19:02:14.900Z,2981.00
2023-05-05T19:03:14.889Z,2964.00
2023-05-05T19:04:29.533Z,2988.00
2023-05-05T19:05:15.909Z,2981.00
2023-05-05T19:06:14.876Z,2994.00
2023-05-05T19:07:27.638Z,3004.00
2023-05-05T19:08:15.876Z,2990.00
2023-05-05T19:09:14.867Z,2990.00
2023-05-05T19:10:14.839Z,2998.00
2023-05-05T19:11:14.844Z,2983.00
2023-05-05T19:12:14.814Z,2985.00
2023-05-05T19:13:14.868Z,2976.00
2023-05-05T19:14:14.873Z,2985.00
2023-05-05T19:15:14.790Z,2967.00
2023-05-05T19:16:14.834Z,2971.00
2023-05-05T19:17:14.824Z,2986.00
2023-05-05T19:18:14.814Z,2978.00
2023-05-05T19:19:14.795Z,3011.00
2023-05-05T19:20:14.770Z,2983.00
2023-05-05T19:21:14.803Z,2989.00
2023-05-05T19:22:14.783Z,2986.00
2023-05-05T19:23:14.750Z,2987.00
2023-05-05T19:24:14.790Z,2967.00
2023-05-05T19:25:14.722Z,2995.00
2023-05-05T19:26:14.775Z,2987.00
2023-05-05T19:27:16.601Z,2998.00
2023-05-05T19:28:14.714Z,2972.00
2023-05-05T19:29:14.718Z,2975.00
2023-05-05T19:30:14.725Z,2991.00
2023-05-05T19:31:14.700Z,2958.00
2023-05-05T19:32:14.756Z,2981.00
2023-05-05T19:33:14.702Z,2994.00
2023-05-05T19:34:14.725Z,2988.00
2023-05-05T19:35:14.728Z,2971.00
2023-05-05T19:36:14.769Z,2983.00
2023-05-05T19:37:14.813Z,2985.00
2023-05-05T19:38:14.795Z,3003.00
2023-05-05T19:39:15.983Z,2995.00
2023-05-05T19:40:14.842Z,2966.00
2023-05-05T19:41:14.819Z,2974.00
2023-05-05T19:42:14.821Z,2977.00
2023-05-05T19:43:14.914Z,2997.00
2023-05-05T19:44:14.877Z,2962.00
2023-05-05T19:45:14.903Z,2980.00
2023-05-05T19:46:14.930Z,2981.00
2023-05-05T19:47:14.888Z,2979.00
2023-05-05T19:48:14.927Z,2992.00
2023-05-05T19:49:14.932Z,2989.00
2023-05-05T19:50:14.962Z,2985.00
2023-05-05T19:51:14.970Z,2958.00
2023-05-05T19:52:15.010Z,2951.00
2023-05-05T19:53:14.993Z,2965.00
2023-05-05T19:54:15.029Z,2952.00
2023-05-05T19:55:15.084Z,2963.00
2023-05-05T19:56:15.024Z,2961.00
2023-05-05T19:57:15.095Z,2948.00
2023-05-05T19:58:15.076Z,2936.00
2023-05-05T19:59:15.182Z,2959.00
2023-05-05T20:00:15.184Z,2961.00
2023-05-05T20:01:15.225Z,2952.00
2023-05-05T20:02:15.183Z,2917.00
2023-05-05T20:03:15.474Z,2941.00
2023-05-05T20:04:15.234Z,2950.00
2023-05-05T20:05:15.246Z,2958.00
2023-05-05T20:06:15.277Z,2977.00
2023-05-05T20:07:15.346Z,2965.00
2023-05-05T20:08:15.360Z,2946.00
2023-05-05T20:09:15.354Z,2921.00
2023-05-05T20:10:15.388Z,2902.00
2023-05-05T20:11:15.407Z,2904.00
2023-05-05T20:12:15.458Z,2922.00
2023-05-05T20:13:15.507Z,2925.00
2023-05-05T20:14:15.523Z,2901.00
2023-05-05T20:15:15.598Z,2906.00
2023-05-05T20:16:15.549Z,2905.00
2023-05-05T20:17:15.576Z,2913.00
2023-05-05T20:18:15.692Z,2889.00
2023-05-05T20:19:15.667Z,2891.00
2023-05-05T20:20:15.864Z,2903.00
2023-05-05T20:21:15.740Z,2881.00
2023-05-05T20:22:15.720Z,2871.00
2023-05-05T20:23:15.813Z,2860.00
2023-05-05T20:24:15.803Z,2852.00
2023-05-05T20:25:15.872Z,2830.00
2023-05-05T20:26:15.892Z,2839.00
2023-05-05T20:27:15.887Z,2843.00
2023-05-05T20:28:15.950Z,2824.00
2023-05-05T20:29:16.019Z,2826.00
2023-05-05T20:30:16.025Z,2824.00
2023-05-05T20:31:16.163Z,2790.00
2023-05-05T20:32:16.081Z,2798.00
2023-05-05T20:33:16.120Z,2794.00
2023-05-05T20:34:16.147Z,2799.00
2023-05-05T20:35:16.171Z,2807.00
2023-05-05T20:36:16.264Z,2773.00
2023-05-05T20:37:16.330Z,2751.00
2023-05-05T20:38:16.294Z,2752.00
2023-05-05T20:39:16.306Z,2740.00
2023-05-05T20:40:16.389Z,2749.00
2023-05-05T20:41:16.393Z,2748.00
2023-05-05T20:42:16.446Z,2758.00
2023-05-05T20:43:16.639Z,2743.00
2023-05-05T20:44:16.539Z,2746.00
2023-05-05T20:45:16.560Z,2741.00
2023-05-05T20:46:16.668Z,2736.00
2023-05-05T20:47:16.695Z,2723.00
2023-05-05T20:48:16.747Z,2727.00
2023-05-05T20:49:16.764Z,2723.00
2023-05-05T20:50:16.804Z,2719.00
2023-05-05T20:51:16.872Z,2747.00
2023-05-05T20:52:16.895Z,2728.00
2023-05-05T20:53:16.916Z,2722.00
2023-05-05T20:54:17.027Z,2713.00
2023-05-05T20:55:17.048Z,2746.00
2023-05-05T20:56:17.066Z,2723.00
2023-05-05T20:57:17.116Z,2719.00
2023-05-05T20:58:17.163Z,2689.00
2023-05-05T20:59:17.211Z,2691.00
2023-05-05T21:00:17.277Z,2681.00
2023-05-05T21:01:17.317Z,2669.00
2023-05-05T21:02:17.424Z,2680.00
2023-05-05T21:03:17.594Z,2690.00
2023-05-05T21:04:17.465Z,2679.00
2023-05-05T21:05:17.571Z,2687.00
2023-05-05T21:06:17.591Z,2697.00
2023-05-05T21:07:17.636Z,2666.00
2023-05-05T21:08:17.700Z,2652.00
2023-05-05T21:09:17.752Z,2664.00
2023-05-05T21:10:17.804Z,2672.00
2023-05-05T21:11:17.863Z,2667.00
2023-05-05T21:12:17.878Z,2644.00
2023-05-05T21:13:18.017Z,2640.00
2023-05-05T21:14:18.027Z,2645.00
2023-05-05T21:15:18.054Z,2635.00
2023-05-05T21:16:18.139Z,2649.00
2023-05-05T21:17:18.162Z,2633.00
2023-05-05T21:18:18.225Z,2610.00
2023-05-05T21:19:18.344Z,2617.00
2023-05-05T21:20:18.335Z,2633.00
2023-05-05T21:21:18.401Z,2636.00
2023-05-05T21:22:18.509Z,2623.00
2023-05-05T21:23:18.535Z,2619.00
2023-05-05T21:24:18.620Z,2614.00
2023-05-05T21:25:18.661Z,2597.00
2023-05-05T21:26:18.741Z,2611.00
2023-05-05T21:27:18.794Z,2637.00
2023-05-05T21:28:18.855Z,2584.00
2023-05-05T21:29:18.913Z,2597.00
2023-05-05T21:30:18.973Z,2613.00
2023-05-05T21:31:22.197Z,2592.00
2023-05-05T21:32:19.118Z,2589.00
2023-05-05T21:33:19.011Z,2612.00
2023-05-05T21:34:19.001Z,2630.00
2023-05-05T21:35:19.048Z,2610.00
2023-05-05T21:36:19.050Z,2621.00
2023-05-05T21:37:18.973Z,2625.00
2023-05-05T21:38:18.972Z,2647.00
2023-05-05T21:39:18.982Z,2647.00
2023-05-05T21:40:18.994Z,2673.00
2023-05-05T21:41:19.001Z,2662.00
2023-05-05T21:42:18.958Z,2687.00
2023-05-05T21:43:18.952Z,2671.00
2023-05-05T21:44:18.961Z,2677.00
2023-05-05T21:45:18.968Z,2663.00
2023-05-05T21:46:18.959Z,2636.00
2023-05-05T21:47:18.955Z,2630.00
2023-05-05T21:48:18.935Z,2641.00
2023-05-05T21:49:18.923Z,2654.00
2023-05-05T21:50:18.902Z,2656.00
2023-05-05T21:51:18.908Z,2690.00
2023-05-05T21:52:18.914Z,2659.00
2023-05-05T21:53:18.923Z,2620.00
2023-05-05T21:54:18.885Z,2624.00
2023-05-05T21:55:18.934Z,2659.00
2023-05-05T21:56:18.878Z,2686.00
2023-05-05T21:57:18.850Z,2675.00
2023-05-05T21:58:18.856Z,2671.00
2023-05-05T21:59:19.002Z,2613.00
2023-05-05T22:00:19.137Z,2637.00
2023-05-05T22:01:18.845Z,2630.00
2023-05-05T22:02:18.988Z,2628.00
2023-05-05T22:03:18.887Z,2666.00
2023-05-05T22:04:18.825Z,2636.00
2023-05-05T22:05:18.855Z,2650.00
2023-05-05T22:06:18.798Z,2646.00
2023-05-05T22:07:18.829Z,2618.00
2023-05-05T22:08:18.782Z,2631.00
2023-05-05T22:09:18.752Z,2615.00
2023-05-05T22:10:18.811Z,2608.00
2023-05-05T22:11:18.779Z,2596.00
2023-05-05T22:12:18.784Z,2613.00
2023-05-05T22:13:18.803Z,2613.00
2023-05-05T22:14:18.812Z,2628.00
2023-05-05T22:15:18.753Z,2601.00
2023-05-05T22:16:18.852Z,2587.00
2023-05-05T22:17:18.753Z,2597.00
2023-05-05T22:18:18.734Z,2595.00
2023-05-05T22:19:18.692Z,2587.00
2023-05-05T22:20:18.720Z,2594.00
2023-05-05T22:21:18.685Z,2563.00
2023-05-05T22:22:18.711Z,2562.00
2023-05-05T22:23:18.708Z,2599.00
2023-05-05T22:24:18.698Z,2560.00
2023-05-05T22:25:18.733Z,2571.00
2023-05-05T22:26:18.730Z,2613.00
2023-05-05T22:27:18.656Z,2548.00
2023-05-05T22:28:18.696Z,2577.00
2023-05-05T22:29:18.722Z,2519.00
2023-05-05T22:30:18.626Z,2549.00
2023-05-05T22:31:18.732Z,2548.00
2023-05-05T22:32:18.664Z,2533.00
2023-05-05T22:33:18.688Z,2536.00
2023-05-05T22:34:18.686Z,2510.00
2023-05-05T22:35:18.640Z,2534.00
2023-05-05T22:36:18.639Z,2525.00